Time;durP1;ratioP1;P1;durP2;ratioP2;P2;SDS_P1;SDS_P2;PMS_P1;PMS_P2;Temp;Humidity;BMP_temperature;BMP_pressure;BME280_temperature;BME280_humidity;BME280_pressure;Samples;Min_cycle;Max_cycle;Signal;HPM_P1;HPM_P2
2021/12/29 00:02:15;;;;;;;0.00;0.00;;;10.00;99.90;;;;;;6272435;22;20003;-72
2021/12/29 00:04:41;;;;;;;0.00;0.00;;;10.00;99.90;;;;;;6300252;22;19999;-75
2021/12/29 00:07:07;;;;;;;;;;;10.00;99.90;;;;;;6301601;22;20007;-73
2021/12/29 00:09:36;;;;;;;0.00;0.00;;;10.00;99.90;;;;;;6299037;22;19911;-72
2021/12/29 00:12:07;;;;;;;0.00;0.00;;;10.00;99.90;;;;;;6298886;22;19999;-73
2021/12/29 00:14:33;;;;;;;0.00;0.00;;;10.00;99.90;;;;;;6274883;22;20007;-72
2021/12/29 00:16:59;;;;;;;0.00;0.00;;;9.90;99.90;;;;;;6300189;22;20074;-74
2021/12/29 00:19:25;;;;;;;0.00;0.00;;;9.90;99.90;;;;;;6299076;22;20056;-72
2021/12/29 00:21:51;;;;;;;;;;;9.90;99.90;;;;;;6300346;22;20007;-70
2021/12/29 00:24:17;;;;;;;0.00;0.00;;;9.90;99.90;;;;;;6276790;22;19905;-72
2021/12/29 00:26:43;;;;;;;0.00;0.00;;;10.00;99.90;;;;;;6297714;22;20007;-71
2021/12/29 00:29:08;;;;;;;0.00;0.00;;;10.00;99.90;;;;;;6299327;22;20323;-71
2021/12/29 00:31:34;;;;;;;0.00;0.00;;;10.00;99.90;;;;;;6300935;22;19995;-71
2021/12/29 00:34:00;;;;;;;0.00;0.00;;;10.00;99.90;;;;;;6298159;22;20003;-73
2021/12/29 00:36:27;;;;;;;0.00;0.00;;;10.00;99.90;;;;;;6300769;22;20007;-71
2021/12/29 00:38:53;;;;;;;0.00;0.00;;;10.10;99.90;;;;;;6299843;22;20121;-71
2021/12/29 00:41:20;;;;;;;0.00;0.00;;;10.10;99.90;;;;;;6300521;22;20010;-72
2021/12/29 00:43:46;;;;;;;0.00;0.00;;;10.10;99.90;;;;;;6301343;22;20010;-71
2021/12/29 00:46:15;;;;;;;;;;;10.10;99.90;;;;;;6301555;22;20019;-71
2021/12/29 00:48:44;;;;;;;0.00;0.00;;;10.10;99.90;;;;;;6302976;22;19972;-73
2021/12/29 00:51:11;;;;;;;0.00;0.00;;;10.10;99.90;;;;;;6304776;22;19996;-72
2021/12/29 00:53:37;;;;;;;0.00;0.00;;;10.10;99.90;;;;;;6302546;22;20072;-73
2021/12/29 00:56:04;;;;;;;0.00;0.00;;;10.10;99.90;;;;;;6303252;22;20030;-72
2021/12/29 00:58:30;;;;;;;0.00;0.00;;;10.10;99.90;;;;;;6302941;22;20060;-72
2021/12/29 01:00:56;;;;;;;0.00;0.00;;;10.10;99.90;;;;;;6302816;22;20003;-73
2021/12/29 01:03:22;;;;;;;0.00;0.00;;;10.10;99.90;;;;;;6300807;22;20049;-72
2021/12/29 01:05:48;;;;;;;0.00;0.00;;;10.10;99.90;;;;;;6303148;22;20003;-72
2021/12/29 01:08:14;;;;;;;0.00;0.00;;;10.10;99.90;;;;;;6303636;22;20006;-72
2021/12/29 01:10:44;;;;;;;0.00;0.00;;;10.20;99.90;;;;;;6274803;22;20016;-73
2021/12/29 01:13:14;;;;;;;0.00;0.00;;;10.20;99.90;;;;;;6299887;22;19999;-72
2021/12/29 01:16:09;;;;;;;0.00;0.00;;;10.20;99.90;;;;;;6299570;22;20087;-73
2021/12/29 01:18:37;;;;;;;0.00;0.00;;;10.20;99.90;;;;;;6272341;22;20173;-71
2021/12/29 01:21:04;;;;;;;0.00;0.00;;;10.20;99.90;;;;;;6300037;22;20002;-72
2021/12/29 01:23:30;;;;;;;0.00;0.00;;;10.20;99.90;;;;;;6303891;22;20002;-72
2021/12/29 01:25:55;;;;;;;0.00;0.00;;;10.30;99.90;;;;;;6302735;22;19999;-71
2021/12/29 01:28:21;;;;;;;0.00;0.00;;;10.30;99.90;;;;;;6302540;22;20025;-72
2021/12/29 01:30:47;;;;;;;0.00;0.00;;;10.40;99.90;;;;;;6304035;22;20000;-72
2021/12/29 01:33:13;;;;;;;0.00;0.00;;;10.40;99.90;;;;;;6297525;22;20062;-72
2021/12/29 01:35:41;;;;;;;0.00;0.00;;;10.30;99.90;;;;;;6301633;22;19999;-73
2021/12/29 01:38:08;;;;;;;0.00;0.00;;;10.30;99.90;;;;;;6301572;22;20077;-73
2021/12/29 01:40:35;;;;;;;0.00;0.00;;;10.20;99.90;;;;;;6299832;22;20061;-72
2021/12/29 01:43:06;;;;;;;0.00;0.00;;;10.20;99.90;;;;;;6300700;22;20003;-72
2021/12/29 01:45:32;;;;;;;0.00;0.00;;;10.30;99.90;;;;;;6294814;22;20444;-72
2021/12/29 01:48:00;;;;;;;0.00;0.00;;;10.20;99.90;;;;;;6303764;22;20030;-71
2021/12/29 01:50:26;;;;;;;0.00;0.00;;;10.30;99.90;;;;;;6304634;22;20007;-72
2021/12/29 01:52:57;;;;;;;;;;;10.30;99.90;;;;;;6304951;22;20454;-72
2021/12/29 01:55:27;;;;;;;0.00;0.00;;;10.40;99.90;;;;;;6302625;22;19931;-70
2021/12/29 01:57:53;;;;;;;0.00;0.00;;;10.50;99.90;;;;;;6305806;22;20011;-72
2021/12/29 02:00:23;;;;;;;0.00;0.00;;;10.40;99.90;;;;;;6301350;22;19999;-71
2021/12/29 02:02:49;;;;;;;0.00;0.00;;;10.40;99.90;;;;;;6303673;22;20006;-72
2021/12/29 02:05:15;;;;;;;0.00;0.00;;;10.40;99.90;;;;;;6303375;22;20106;-71
2021/12/29 02:07:42;;;;;;;;;;;10.50;99.90;;;;;;6304719;22;19991;-71
2021/12/29 02:10:09;;;;;;;0.00;0.00;;;10.40;99.90;;;;;;6304041;22;19925;-72
2021/12/29 02:12:37;;;;;;;0.00;0.00;;;10.40;99.90;;;;;;6300443;22;19999;-71
2021/12/29 02:15:07;;;;;;;0.00;0.00;;;10.50;99.90;;;;;;6275929;22;19996;-70
2021/12/29 02:17:34;;;;;;;0.00;0.00;;;10.50;99.90;;;;;;6302979;22;20799;-72
2021/12/29 02:20:08;;;;;;;0.00;0.00;;;10.40;99.90;;;;;;6303582;22;20000;-72
2021/12/29 02:22:46;;;;;;;0.00;0.00;;;10.40;99.90;;;;;;6303414;22;20000;-75
2021/12/29 02:27:48;;;;;;;0.00;0.00;;;10.40;99.90;;;;;;6302093;22;20106;-72
2021/12/29 02:30:16;;;;;;;0.00;0.00;;;10.40;99.90;;;;;;6302691;22;19996;-71
2021/12/29 02:32:43;;;;;;;0.00;0.00;;;10.40;99.90;;;;;;6301326;22;20062;-72
2021/12/29 02:35:10;;;;;;;0.00;0.00;;;10.40;99.90;;;;;;6302294;22;20007;-71
2021/12/29 02:37:37;;;;;;;0.00;0.00;;;10.40;99.90;;;;;;6277660;22;20007;-72
2021/12/29 02:40:04;;;;;;;0.00;0.00;;;10.40;99.90;;;;;;6304382;22;19999;-72
2021/12/29 02:42:38;;;;;;;0.00;0.00;;;10.40;99.90;;;;;;6303258;22;20048;-72
2021/12/29 02:45:05;;;;;;;0.00;0.00;;;10.50;99.90;;;;;;6304159;22;19999;-72
2021/12/29 02:47:31;;;;;;;0.00;0.00;;;10.50;99.90;;;;;;6302448;22;20008;-71
2021/12/29 02:49:57;;;;;;;0.00;0.00;;;10.50;99.90;;;;;;6302389;22;20513;-71
2021/12/29 02:52:24;;;;;;;0.00;0.00;;;10.50;99.90;;;;;;6302878;22;20298;-71
2021/12/29 02:54:51;;;;;;;0.00;0.00;;;10.60;99.90;;;;;;6274939;22;20073;-72
2021/12/29 02:57:17;;;;;;;0.00;0.00;;;10.60;99.90;;;;;;6302590;22;20006;-72
2021/12/29 02:59:42;;;;;;;0.00;0.00;;;10.50;99.90;;;;;;6301048;22;20003;-72
2021/12/29 03:02:08;;;;;;;0.00;0.00;;;10.40;99.90;;;;;;6301332;22;20007;-72
2021/12/29 03:04:34;;;;;;;0.00;0.00;;;10.40;99.90;;;;;;6299613;22;20060;-71
2021/12/29 03:07:00;;;;;;;;;;;10.40;99.90;;;;;;6301207;22;19999;-73
2021/12/29 03:09:26;;;;;;;0.00;0.00;;;10.30;99.90;;;;;;6302672;22;19933;-71
2021/12/29 03:11:52;;;;;;;0.00;0.00;;;10.30;99.90;;;;;;6304504;22;20005;-71
2021/12/29 03:14:18;;;;;;;0.00;0.00;;;10.30;99.90;;;;;;6302599;22;19995;-72
2021/12/29 03:16:44;;;;;;;0.00;0.00;;;10.30;99.90;;;;;;6303747;22;20103;-71
2021/12/29 03:19:10;;;;;;;0.00;0.00;;;10.40;99.90;;;;;;6302499;22;20090;-71
2021/12/29 03:21:37;;;;;;;0.00;0.00;;;10.40;99.90;;;;;;6277228;22;20003;-72
2021/12/29 03:24:04;;;;;;;0.00;0.00;;;10.40;99.90;;;;;;6305643;22;20063;-71
2021/12/29 03:26:30;;;;;;;0.00;0.00;;;10.50;99.90;;;;;;6305005;22;20014;-72
2021/12/29 03:28:57;;;;;;;0.00;0.00;;;10.50;99.90;;;;;;6304258;22;20000;-72
2021/12/29 03:31:24;;;;;;;0.00;0.00;;;10.50;99.90;;;;;;6302804;22;20313;-72
2021/12/29 03:33:50;;;;;;;0.00;0.00;;;10.50;99.90;;;;;;6302576;22;20015;-71
2021/12/29 03:36:17;;;;;;;;;;;10.50;99.90;;;;;;6303827;22;20018;-72
2021/12/29 03:38:43;;;;;;;0.00;0.00;;;10.50;99.90;;;;;;6302310;22;19918;-72
2021/12/29 03:41:12;;;;;;;0.00;0.00;;;10.50;99.90;;;;;;6304228;22;20430;-72
2021/12/29 03:43:40;;;;;;;0.00;0.00;;;10.50;99.90;;;;;;6274908;22;20010;-71
2021/12/29 03:46:07;;;;;;;0.00;0.00;;;10.40;99.90;;;;;;6302610;22;20023;-72
2021/12/29 03:48:34;;;;;;;0.00;0.00;;;10.40;99.90;;;;;;6303749;22;20070;-72
2021/12/29 03:51:00;;;;;;;0.00;0.00;;;10.40;99.90;;;;;;6303968;22;20005;-71
2021/12/29 03:53:26;;;;;;;;;;;10.40;99.90;;;;;;6301865;22;20000;-72
2021/12/29 03:55:52;;;;;;;0.00;0.00;;;10.40;99.90;;;;;;6303190;22;19909;-72
2021/12/29 03:58:20;;;;;;;0.00;0.00;;;10.20;99.90;;;;;;6303933;22;20362;-71
2021/12/29 04:00:47;;;;;;;0.00;0.00;;;10.00;99.90;;;;;;6301219;22;19999;-72
2021/12/29 04:03:13;;;;;;;0.00;0.00;;;9.80;99.90;;;;;;6301479;22;19995;-72
2021/12/29 04:05:40;;;;;;;0.00;0.00;;;9.80;99.90;;;;;;6302086;22;20427;-73
2021/12/29 04:08:07;;;;;;;0.00;0.00;;;9.80;99.90;;;;;;6303879;22;19996;-71
2021/12/29 04:10:33;;;;;;;0.00;0.00;;;9.80;99.90;;;;;;6302312;22;20007;-71
2021/12/29 04:12:59;;;;;;;;;;;9.80;99.90;;;;;;6274815;22;19999;-72
2021/12/29 04:15:25;;;;;;;0.00;0.00;;;9.70;99.90;;;;;;6303805;22;19903;-71
2021/12/29 04:17:57;;;;;;;0.00;0.00;;;9.60;99.90;;;;;;6303870;22;20085;-73
2021/12/29 04:23:13;;;;;;;0.00;0.00;;;9.50;99.90;;;;;;6301991;22;20022;-72
2021/12/29 04:25:40;;;;;;;0.00;0.00;;;9.60;99.90;;;;;;6301339;22;20078;-72
2021/12/29 04:28:10;;;;;;;0.00;0.00;;;9.60;99.90;;;;;;6300657;22;20007;-72
2021/12/29 04:30:36;;;;;;;0.00;0.00;;;9.60;99.90;;;;;;6301524;22;20085;-73
2021/12/29 04:33:03;;;;;;;0.00;0.00;;;9.60;99.90;;;;;;6300941;22;20031;-72
2021/12/29 04:35:29;;;;;;;0.00;0.00;;;9.50;99.90;;;;;;6301850;22;20009;-73
2021/12/29 04:37:55;;;;;;;0.00;0.00;;;9.60;99.90;;;;;;6301820;22;20078;-72
2021/12/29 04:40:21;;;;;;;;;;;9.70;99.90;;;;;;6302423;22;20068;-72
2021/12/29 04:42:48;;;;;;;0.00;0.00;;;9.60;99.90;;;;;;6301115;22;20311;-72
2021/12/29 04:45:14;;;;;;;0.00;0.00;;;9.50;99.90;;;;;;6301556;22;19999;-72
2021/12/29 04:47:43;;;;;;;0.00;0.00;;;9.60;99.90;;;;;;6301071;22;20026;-73
2021/12/29 04:50:24;;;;;;;0.00;0.00;;;9.60;99.90;;;;;;6302562;22;20015;-71
2021/12/29 04:52:51;;;;;;;0.00;0.00;;;9.50;99.90;;;;;;6302131;22;20002;-72
2021/12/29 04:55:16;;;;;;;0.00;0.00;;;9.40;99.90;;;;;;6302514;22;19995;-72
2021/12/29 04:57:42;;;;;;;0.00;0.00;;;9.40;99.90;;;;;;6303917;22;20014;-73
2021/12/29 05:00:09;;;;;;;0.00;0.00;;;9.30;99.90;;;;;;6302187;22;20011;-72
2021/12/29 05:02:35;;;;;;;0.00;0.00;;;9.30;99.90;;;;;;6303119;22;20006;-72
2021/12/29 05:05:11;;;;;;;0.00;0.00;;;9.30;99.90;;;;;;6275713;22;20384;-72
2021/12/29 05:10:21;;;;;;;0.00;0.00;;;9.40;99.90;;;;;;6303502;22;20021;-71
2021/12/29 05:12:47;;;;;;;0.00;0.00;;;9.40;99.90;;;;;;6302610;22;20003;-73
2021/12/29 05:15:12;;;;;;;0.00;0.00;;;9.40;99.90;;;;;;6305125;22;20003;-73
2021/12/29 05:17:38;;;;;;;0.00;0.00;;;9.40;99.90;;;;;;6305824;22;20004;-71
2021/12/29 05:20:04;;;;;;;0.00;0.00;;;9.50;99.90;;;;;;6305450;22;20087;-71
2021/12/29 05:22:30;;;;;;;0.00;0.00;;;9.40;99.90;;;;;;6306261;22;20027;-73
2021/12/29 05:24:55;;;;;;;0.00;0.00;;;9.30;99.90;;;;;;6303844;22;19991;-72
2021/12/29 05:27:21;;;;;;;0.00;0.00;;;9.30;99.90;;;;;;6304225;22;20003;-72
2021/12/29 05:29:47;;;;;;;0.00;0.00;;;9.30;99.90;;;;;;6303966;22;20004;-73
2021/12/29 05:32:13;;;;;;;0.00;0.00;;;9.30;99.90;;;;;;6304125;22;20416;-72
2021/12/29 05:34:38;;;;;;;0.00;0.00;;;9.50;99.90;;;;;;6303877;22;20007;-72
2021/12/29 05:37:04;;;;;;;0.00;0.00;;;9.60;99.90;;;;;;6304039;22;20099;-73
2021/12/29 05:39:30;;;;;;;0.00;0.00;;;9.60;99.90;;;;;;6302739;22;20035;-72
2021/12/29 05:41:56;;;;;;;0.00;0.00;;;9.50;99.90;;;;;;6303827;22;19992;-72
2021/12/29 05:44:21;;;;;;;0.00;0.00;;;9.50;99.90;;;;;;6304324;22;20121;-74
2021/12/29 05:46:47;;;;;;;0.00;0.00;;;9.50;99.90;;;;;;6303271;22;19995;-73
2021/12/29 05:49:13;;;;;;;0.00;0.00;;;9.60;99.90;;;;;;6304295;22;19999;-72
2021/12/29 05:51:38;;;;;;;0.00;0.00;;;9.50;99.90;;;;;;6304563;22;20003;-71
2021/12/29 05:54:04;;;;;;;0.00;0.00;;;9.50;99.90;;;;;;6304022;22;20423;-72
2021/12/29 05:56:30;;;;;;;0.00;0.00;;;9.50;99.90;;;;;;6303793;22;19999;-72
2021/12/29 05:58:59;;;;;;;0.00;0.00;;;9.60;99.90;;;;;;6303395;22;20517;-72
2021/12/29 06:01:25;;;;;;;0.00;0.00;;;9.80;99.90;;;;;;6303363;22;20002;-73
2021/12/29 06:03:51;;;;;;;0.00;0.00;;;9.90;99.90;;;;;;6304554;22;20023;-72
2021/12/29 06:06:17;;;;;;;0.00;0.00;;;9.80;99.90;;;;;;6305631;22;20326;-71
2021/12/29 06:08:43;;;;;;;0.00;0.00;;;9.90;99.90;;;;;;6305227;22;20331;-72
2021/12/29 06:11:08;;;;;;;0.00;0.00;;;10.00;99.90;;;;;;6306648;22;20069;-72
2021/12/29 06:13:34;;;;;;;0.00;0.00;;;10.10;99.90;;;;;;6305720;22;19996;-72
2021/12/29 06:16:01;;;;;;;0.00;0.00;;;10.10;99.90;;;;;;6305863;22;20026;-72
2021/12/29 06:18:28;;;;;;;0.00;0.00;;;10.20;99.90;;;;;;6304712;22;20000;-73
2021/12/29 06:20:53;;;;;;;0.00;0.00;;;10.30;99.90;;;;;;6306248;22;20063;-71
2021/12/29 06:23:20;;;;;;;0.00;0.00;;;10.30;99.90;;;;;;6305816;22;19995;-72
2021/12/29 06:25:46;;;;;;;0.00;0.00;;;10.30;99.90;;;;;;6304865;22;20026;-72
2021/12/29 06:28:12;;;;;;;0.00;0.00;;;10.30;99.90;;;;;;6304123;22;20040;-72
2021/12/29 06:30:37;;;;;;;0.00;0.00;;;10.30;99.90;;;;;;6304427;22;20031;-72
2021/12/29 06:33:03;;;;;;;0.00;0.00;;;10.40;99.90;;;;;;6304724;22;19995;-73
2021/12/29 06:35:29;;;;;;;0.00;0.00;;;10.40;99.90;;;;;;6305445;22;20003;-72
2021/12/29 06:37:55;;;;;;;0.00;0.00;;;10.40;99.90;;;;;;6305202;22;20006;-72
2021/12/29 06:40:20;;;;;;;0.00;0.00;;;10.50;99.90;;;;;;6304021;22;20424;-72
2021/12/29 06:42:46;;;;;;;0.00;0.00;;;10.50;99.90;;;;;;6305528;22;20105;-72
2021/12/29 06:45:13;;;;;;;0.00;0.00;;;10.40;99.90;;;;;;6305694;22;19996;-72
2021/12/29 06:47:39;;;;;;;0.00;0.00;;;10.40;99.90;;;;;;6303490;22;19999;-72
2021/12/29 06:50:05;;;;;;;;;;;10.40;99.90;;;;;;6305888;22;20010;-71
2021/12/29 06:52:30;;;;;;;0.00;0.00;;;10.50;99.90;;;;;;6305852;22;19899;-73
2021/12/29 06:54:56;;;;;;;0.00;0.00;;;10.60;99.90;;;;;;6305438;22;20060;-72
2021/12/29 06:57:22;;;;;;;0.00;0.00;;;10.60;99.90;;;;;;6304994;22;20006;-72
2021/12/29 06:59:48;;;;;;;0.00;0.00;;;10.60;99.90;;;;;;6304814;22;20003;-74
2021/12/29 07:02:16;;;;;;;0.00;0.00;;;10.70;99.90;;;;;;6304338;22;19999;-71
2021/12/29 07:04:44;;;;;;;0.00;0.00;;;10.80;99.90;;;;;;6304096;22;20001;-72
2021/12/29 07:07:10;;;;;;;0.00;0.00;;;10.80;99.90;;;;;;6303994;22;20444;-73
2021/12/29 07:09:36;;;;;;;0.00;0.00;;;10.80;99.90;;;;;;6276468;22;20042;-71
2021/12/29 07:12:02;;;;;;;0.00;0.00;;;10.80;99.90;;;;;;6304137;22;20026;-72
2021/12/29 07:14:28;;;;;;;0.00;0.00;;;10.80;99.90;;;;;;6303773;22;20022;-72
2021/12/29 07:16:54;;;;;;;0.00;0.00;;;10.90;99.90;;;;;;6304597;22;20003;-72
2021/12/29 07:19:20;;;;;;;;;;;10.90;99.90;;;;;;6304339;22;20034;-72
2021/12/29 07:21:47;;;;;;;0.00;0.00;;;11.00;99.90;;;;;;6305063;22;19929;-72
2021/12/29 07:24:12;;;;;;;0.00;0.00;;;11.00;99.90;;;;;;6305231;22;20013;-73
2021/12/29 07:26:38;;;;;;;0.00;0.00;;;10.90;99.90;;;;;;6304626;22;20003;-73
2021/12/29 07:29:05;;;;;;;0.00;0.00;;;10.90;99.90;;;;;;6302869;22;20109;-72
2021/12/29 07:31:31;;;;;;;0.00;0.00;;;10.90;99.90;;;;;;6302489;22;20052;-71
2021/12/29 07:33:57;;;;;;;;;;;11.00;99.90;;;;;;6304163;22;20037;-72
2021/12/29 07:36:23;;;;;;;0.00;0.00;;;11.00;99.90;;;;;;6302728;22;19907;-73
2021/12/29 07:38:49;;;;;;;0.00;0.00;;;11.10;99.90;;;;;;6300604;22;19999;-74
2021/12/29 07:41:16;;;;;;;0.00;0.00;;;11.00;99.90;;;;;;6304417;22;19995;-72
2021/12/29 07:43:42;;;;;;;0.00;0.00;;;11.00;99.90;;;;;;6276963;22;20013;-71
2021/12/29 07:46:09;;;;;;;0.00;0.00;;;11.00;99.90;;;;;;6304413;22;20007;-72
2021/12/29 07:48:36;;;;;;;0.00;0.00;;;11.10;99.90;;;;;;6303310;22;20091;-71
2021/12/29 07:51:04;;;;;;;0.00;0.00;;;11.10;99.90;;;;;;6304182;22;20030;-71
2021/12/29 07:53:30;;;;;;;0.00;0.00;;;11.10;99.90;;;;;;6304502;22;20010;-72
2021/12/29 07:55:56;;;;;;;0.00;0.00;;;11.10;99.90;;;;;;6277727;22;20007;-72
2021/12/29 07:58:22;;;;;;;0.00;0.00;;;11.10;99.90;;;;;;6305121;22;20003;-72
2021/12/29 08:00:49;;;;;;;0.00;0.00;;;11.10;99.90;;;;;;6303441;22;19995;-71
2021/12/29 08:03:16;;;;;;;0.00;0.00;;;11.20;99.90;;;;;;6304314;22;19992;-72
2021/12/29 08:05:43;;;;;;;0.00;0.00;;;11.10;99.90;;;;;;6303467;22;20011;-72
2021/12/29 08:08:09;;;;;;;0.00;0.00;;;11.20;99.90;;;;;;6303838;22;20362;-72
2021/12/29 08:10:37;;;;;;;0.00;0.00;;;11.20;99.90;;;;;;6304603;22;20015;-71
2021/12/29 08:13:05;;;;;;;0.00;0.00;;;11.20;99.90;;;;;;6275737;22;20041;-72
2021/12/29 08:15:32;;;;;;;0.00;0.00;;;11.20;99.90;;;;;;6303418;22;19996;-72
2021/12/29 08:18:02;;;;;;;0.00;0.00;;;11.20;99.90;;;;;;6303218;22;20399;-73
2021/12/29 08:20:28;;;;;;;0.00;0.00;;;11.30;99.90;;;;;;6303132;22;20006;-72
2021/12/29 08:22:54;;;;;;;0.00;0.00;;;11.40;99.90;;;;;;6304688;22;20438;-72
2021/12/29 08:25:20;;;;;;;0.00;0.00;;;11.50;99.90;;;;;;6304327;22;20002;-73
2021/12/29 08:27:46;;;;;;;0.00;0.00;;;11.60;99.90;;;;;;6302859;22;20002;-73
2021/12/29 08:30:12;;;;;;;;;;;11.60;99.90;;;;;;6304341;22;20326;-74
2021/12/29 08:32:38;;;;;;;0.00;0.00;;;11.50;99.90;;;;;;6302751;22;19928;-74
2021/12/29 08:35:05;;;;;;;0.00;0.00;;;11.40;99.90;;;;;;6301955;22;20009;-73
2021/12/29 08:37:31;;;;;;;0.00;0.00;;;11.40;99.90;;;;;;6276360;22;20431;-73
2021/12/29 08:39:57;;;;;;;0.00;0.00;;;11.30;99.90;;;;;;6302824;22;20007;-72
2021/12/29 08:42:23;;;;;;;0.00;0.00;;;11.30;99.90;;;;;;6303077;22;19999;-72
2021/12/29 08:44:49;;;;;;;0.00;0.00;;;11.30;99.90;;;;;;6303030;22;19995;-72
2021/12/29 08:47:15;;;;;;;0.00;0.00;;;11.40;99.90;;;;;;6302116;22;20011;-72
2021/12/29 08:49:41;;;;;;;0.00;0.00;;;11.50;99.90;;;;;;6303201;22;20007;-72
2021/12/29 08:52:06;;;;;;;;;;;11.60;99.90;;;;;;6303467;22;20428;-73
2021/12/29 08:54:34;;;;;;;0.00;0.00;;;11.70;99.90;;;;;;6303849;22;20018;-73
2021/12/29 08:57:00;;;;;;;0.00;0.00;;;11.60;99.90;;;;;;6303811;22;20057;-71
2021/12/29 08:59:26;;;;;;;0.00;0.00;;;11.80;99.90;;;;;;6302895;22;20002;-72
2021/12/29 09:01:52;;;;;;;0.00;0.00;;;11.90;99.90;;;;;;6304786;22;20007;-75
2021/12/29 09:04:17;;;;;;;0.00;0.00;;;12.00;99.90;;;;;;6315361;22;20006;-71
2021/12/29 09:06:43;;;;;;;0.00;0.00;;;12.10;99.90;;;;;;6316669;22;20339;-71
2021/12/29 09:09:09;;;;;;;0.00;0.00;;;12.20;99.90;;;;;;6318327;22;19999;-71
2021/12/29 09:11:34;;;;;;;0.00;0.00;;;12.30;99.90;;;;;;6315382;22;20033;-68
2021/12/29 09:14:00;;;;;;;0.00;0.00;;;12.40;99.90;;;;;;6315447;22;20068;-70
2021/12/29 09:16:28;;;;;;;0.00;0.00;;;12.60;99.90;;;;;;6319584;22;20011;-71
2021/12/29 09:18:54;;;;;;;0.00;0.00;;;12.70;99.90;;;;;;6319738;22;19995;-71
2021/12/29 09:21:20;;;;;;;0.00;0.00;;;12.90;99.90;;;;;;6322520;22;20014;-71
2021/12/29 09:23:46;;;;;;;0.00;0.00;;;12.90;99.90;;;;;;6318323;22;20015;-71
2021/12/29 09:26:13;;;;;;;0.00;0.00;;;13.00;99.90;;;;;;6313909;22;20074;-72
2021/12/29 09:28:41;;;;;;;0.00;0.00;;;13.10;99.90;;;;;;6313874;22;19999;-71
2021/12/29 09:31:07;;;;;;;0.00;0.00;;;13.20;99.90;;;;;;6314034;22;20082;-72
2021/12/29 09:33:33;;;;;;;0.00;0.00;;;13.30;99.90;;;;;;6314375;22;19995;-71
2021/12/29 09:36:02;;;;;;;0.00;0.00;;;13.30;99.90;;;;;;6314126;22;20003;-71
2021/12/29 09:38:31;;;;;;;0.00;0.00;;;13.40;99.90;;;;;;6311415;22;19996;-72
2021/12/29 09:40:58;;;;;;;0.00;0.00;;;13.50;99.90;;;;;;6301834;22;20075;-72
2021/12/29 09:43:24;;;;;;;0.00;0.00;;;13.50;99.90;;;;;;6302239;22;20003;-70
2021/12/29 09:45:52;;;;;;;0.00;0.00;;;13.60;99.90;;;;;;6300668;22;20980;-71
2021/12/29 09:48:18;;;;;;;0.00;0.00;;;13.70;99.90;;;;;;6301807;22;19999;-72
2021/12/29 09:50:45;;;;;;;0.00;0.00;;;13.70;99.90;;;;;;6302107;22;20053;-72
2021/12/29 09:53:11;;;;;;;0.00;0.00;;;13.80;99.90;;;;;;6300512;22;20408;-73
2021/12/29 09:55:37;;;;;;;0.00;0.00;;;13.80;99.90;;;;;;6301622;22;20052;-72
2021/12/29 09:58:06;;;;;;;0.00;0.00;;;13.90;99.90;;;;;;6302511;22;20056;-70
2021/12/29 10:00:44;;;;;;;0.00;0.00;;;13.90;99.90;;;;;;6302509;22;20042;-72
2021/12/29 10:03:13;;;;;;;0.00;0.00;;;14.00;99.90;;;;;;6304649;22;20057;-70
2021/12/29 10:05:41;;;;;;;0.00;0.00;;;14.00;99.90;;;;;;6304274;22;19995;-70
2021/12/29 10:08:10;;;;;;;0.00;0.00;;;14.00;99.90;;;;;;6303853;22;20358;-70
2021/12/29 10:10:47;;;;;;;0.00;0.00;;;14.10;99.90;;;;;;6303466;22;20455;-71
2021/12/29 10:13:13;;;;;;;0.00;0.00;;;14.00;99.90;;;;;;6274477;22;20363;-71
2021/12/29 10:15:40;;;;;;;;;;;14.10;99.90;;;;;;6304527;22;19999;-71
2021/12/29 10:18:09;;;;;;;0.00;0.00;;;14.00;99.90;;;;;;6303179;22;19899;-70
2021/12/29 10:20:48;;;;;;;0.00;0.00;;;14.10;99.90;;;;;;6301722;22;20006;-71
2021/12/29 10:23:38;;;;;;;0.00;0.00;;;14.00;99.90;;;;;;6304152;22;20037;-70
2021/12/29 10:26:12;;;;;;;0.00;0.00;;;14.10;99.90;;;;;;6301451;22;20010;-69
2021/12/29 10:28:42;;;;;;;0.00;0.00;;;14.10;99.90;;;;;;6301783;22;20018;-72
2021/12/29 10:31:15;;;;;;;0.00;0.00;;;14.10;99.90;;;;;;6273103;22;20014;-72
2021/12/29 10:34:04;;;;;;;0.00;0.00;;;14.10;99.90;;;;;;6301752;22;20013;-71
2021/12/29 10:36:36;;;;;;;0.00;0.00;;;14.10;99.90;;;;;;6303475;22;20089;-71
2021/12/29 10:39:07;;;;;;;0.00;0.00;;;14.20;99.90;;;;;;6302233;22;20006;-71
2021/12/29 10:41:47;;;;;;;0.00;0.00;;;14.10;99.90;;;;;;6303561;22;20003;-71
2021/12/29 10:44:14;;;;;;;0.00;0.00;;;14.10;99.90;;;;;;6302709;22;20338;-71
2021/12/29 10:46:40;;;;;;;0.00;0.00;;;14.10;99.90;;;;;;6302835;22;20007;-72
2021/12/29 10:49:06;;;;;;;;;;;14.10;99.90;;;;;;6304663;22;20035;-72
2021/12/29 10:51:38;;;;;;;0.00;0.00;;;14.20;99.90;;;;;;6304314;22;19907;-72
2021/12/29 10:54:07;;;;;;;0.00;0.00;;;14.20;99.90;;;;;;6303033;22;20152;-71
2021/12/29 10:56:34;;;;;;;0.00;0.00;;;14.30;99.90;;;;;;6306096;22;20387;-72
2021/12/29 10:59:10;;;;;;;0.00;0.00;;;14.30;99.90;;;;;;6305768;22;20026;-71
2021/12/29 11:01:36;;;;;;;0.00;0.00;;;14.30;99.90;;;;;;6302499;22;20003;-71
2021/12/29 11:04:03;;;;;;;0.00;0.00;;;14.30;99.90;;;;;;6275723;22;20006;-73
2021/12/29 11:06:28;;;;;;;0.00;0.00;;;14.40;99.90;;;;;;6303034;22;20012;-72
2021/12/29 11:08:57;;;;;;;0.00;0.00;;;14.40;99.90;;;;;;6274701;22;20101;-71
2021/12/29 11:11:32;;;;;;;0.00;0.00;;;14.50;99.90;;;;;;6308247;22;20050;-72
2021/12/29 11:14:10;;;;;;;0.00;0.00;;;14.60;99.90;;;;;;6306252;22;20003;-72
2021/12/29 11:16:36;;;;;;;0.00;0.00;;;14.60;99.90;;;;;;6303884;22;20012;-72
2021/12/29 11:19:03;;;;;;;0.00;0.00;;;14.70;99.90;;;;;;6300207;22;20577;-72
2021/12/29 11:21:33;;;;;;;0.00;0.00;;;14.70;99.90;;;;;;6303579;22;20072;-71
2021/12/29 11:24:14;;;;;;;0.00;0.00;;;14.70;99.90;;;;;;6303290;22;20320;-73
2021/12/29 11:26:40;;;;;;;0.00;0.00;;;14.70;99.90;;;;;;6302757;22;19999;-72
2021/12/29 11:29:09;;;;;;;0.00;0.00;;;14.60;99.90;;;;;;6303114;22;20018;-71
2021/12/29 11:31:42;;;;;;;0.00;0.00;;;14.60;99.90;;;;;;6275380;22;20505;-72
2021/12/29 11:34:26;;;;;;;0.00;0.00;;;14.60;99.90;;;;;;6301857;22;20004;-72
2021/12/29 11:37:03;;;;;;;0.00;0.00;;;14.60;99.90;;;;;;6303767;22;20423;-70
2021/12/29 11:39:31;;;;;;;0.00;0.00;;;14.60;99.90;;;;;;6301846;22;20073;-72
2021/12/29 11:41:57;;;;;;;0.00;0.00;;;14.60;99.90;;;;;;6302931;22;20037;-72
2021/12/29 11:44:24;;;;;;;0.00;0.00;;;14.60;99.90;;;;;;6301873;22;20006;-71
2021/12/29 11:46:49;;;;;;;;;;;14.60;99.90;;;;;;6302100;22;20045;-72
2021/12/29 11:49:15;;;;;;;0.00;0.00;;;14.60;99.90;;;;;;6302181;22;19899;-75
2021/12/29 11:52:01;;;;;;;0.00;0.00;;;14.60;99.90;;;;;;6300428;22;20351;-72
2021/12/29 11:54:53;;;;;;;0.00;0.00;;;14.60;99.90;;;;;;6300141;22;20057;-70
2021/12/29 11:57:26;;;;;;;0.00;0.00;;;14.60;99.90;;;;;;6300334;22;20052;-72
2021/12/29 12:00:04;;;;;;;0.00;0.00;;;14.60;99.90;;;;;;6302725;22;20399;-71
2021/12/29 12:02:30;;;;;;;0.00;0.00;;;14.70;99.90;;;;;;6275633;22;20010;-72
2021/12/29 12:05:04;;;;;;;0.00;0.00;;;14.80;99.90;;;;;;6306421;22;19999;-71
2021/12/29 12:07:30;;;;;;;0.00;0.00;;;14.80;99.90;;;;;;6309089;22;20481;-71
2021/12/29 12:10:02;;;;;;;0.00;0.00;;;14.90;99.90;;;;;;6306649;22;20011;-71
2021/12/29 12:12:45;;;;;;;0.00;0.00;;;15.00;99.90;;;;;;6300750;22;20103;-72
2021/12/29 12:15:12;;;;;;;0.00;0.00;;;14.90;99.90;;;;;;6305870;22;20427;-71
2021/12/29 12:17:39;;;;;;;0.00;0.00;;;15.00;99.90;;;;;;6304151;22;20082;-72
2021/12/29 12:20:11;;;;;;;0.00;0.00;;;14.90;99.90;;;;;;6303025;22;20045;-72
2021/12/29 12:22:52;;;;;;;0.00;0.00;;;14.90;99.90;;;;;;6302288;22;20010;-72
2021/12/29 12:25:30;;;;;;;0.00;0.00;;;14.90;99.90;;;;;;6303274;22;19995;-73
2021/12/29 12:28:01;;;;;;;0.00;0.00;;;14.90;99.90;;;;;;6302693;22;20022;-73
2021/12/29 12:30:40;;;;;;;0.00;0.00;;;14.80;99.90;;;;;;6303357;22;20049;-71
2021/12/29 12:33:12;;;;;;;0.00;0.00;;;14.80;99.90;;;;;;6273553;22;20031;-72
2021/12/29 12:35:48;;;;;;;0.00;0.00;;;14.80;99.90;;;;;;6303848;22;20364;-72
2021/12/29 12:38:30;;;;;;;0.00;0.00;;;14.90;99.90;;;;;;6303853;22;20000;-71
2021/12/29 12:41:07;;;;;;;0.00;0.00;;;14.80;99.90;;;;;;6302122;22;20220;-72
2021/12/29 12:43:57;;;;;;;0.00;0.00;;;14.80;99.90;;;;;;6304272;22;20027;-72
2021/12/29 12:46:55;;;;;;;0.00;0.00;;;14.80;99.90;;;;;;6275180;22;20018;-73
2021/12/29 12:49:26;;;;;;;0.00;0.00;;;14.90;99.90;;;;;;6219004;22;20010;-72
2021/12/29 12:51:57;;;;;;;0.00;0.00;;;14.90;99.90;;;;;;6302748;22;20006;-73
2021/12/29 12:54:27;;;;;;;0.00;0.00;;;14.80;99.90;;;;;;6302591;22;20082;-71
2021/12/29 12:56:55;;;;;;;0.00;0.00;;;14.80;99.90;;;;;;6277474;22;20085;-72
2021/12/29 12:59:20;;;;;;;0.00;0.00;;;14.70;99.90;;;;;;6302826;22;20010;-72
2021/12/29 13:01:50;;;;;;;0.00;0.00;;;14.70;99.90;;;;;;6303372;22;19999;-71
2021/12/29 13:04:18;;;;;;;0.00;0.00;;;14.70;99.90;;;;;;6302907;22;20000;-71
2021/12/29 13:06:50;;;;;;;0.00;0.00;;;14.60;99.90;;;;;;6299790;22;20041;-76